• Join FlightAware (Why Join?)
  • Login
  • US Flag 
05:00PM EDT


 

Airport Tracker/Info


-or-


 

Live Flight TrackerFlight Track Log ✈ N27XP ✈ 27-Jun-2014 ✈ KBOS - KGGE

Flight Track Log - Related Links

Times and Time Zones

All times are in EDT time to prevent confusion due to time zone crossing. See the N27XP flight status page for this flight to view local times or setup timezone preferences in your user account.

Time Position Orientation Groundspeed Altitude Reporting Facility
EDT Latitude Longitude Course Direction KTS MPH feet Rate Location/Type
12:36AM 42.3667 -71.0167 324° Northwest 151 174 700  Level KA90
12:37AM 42.3833 -71.0333 324° Northwest 162 186 1,300 2,100 Climbing KA90
12:38AM 42.4167 -71.0833 312° West 204 235 3,500 2,280 Climbing KA90
12:39AM 42.3733 -71.1767 238° Southwest 237 273 6,600 2,280 Climbing Boston Center
12:40AM 42.3081 -71.1942 191° South 276 318 8,800 2,460 Climbing Boston Center
12:41AM 42.2378 -71.1400 150° Southeast 273 314 11,500 2,220 Climbing Boston Center
12:42AM 42.1756 -71.0678 139° Southeast 295 339 13,200 1,620 Climbing Boston Center
12:43AM 42.1044 -70.9919 142° Southeast 322 371 14,900 1,680 Climbing Boston Center
12:44AM 42.0139 -70.9547 163° South 347 399 16,700 1,560 Climbing Boston Center
12:45AM 41.9319 -71.0197 211° Southwest 350 403 18,100 1,320 Climbing Boston Center
12:46AM 41.8722 -71.1014 226° Southwest 350 403 19,500 1,500 Climbing Boston Center
12:47AM 41.7983 -71.1933 223° Southwest 360 414 21,200 1,500 Climbing Boston Center
12:48AM 41.7261 -71.2878 224° Southwest 360 414 22,600 1,320 Climbing Boston Center
12:49AM 41.6519 -71.3842 224° Southwest 368 423 24,000 1,380 Climbing Boston Center
12:50AM 41.5767 -71.4797 224° Southwest 369 425 25,400 1,320 Climbing Boston Center
12:51AM 41.5031 -71.5769 225° Southwest 371 427 26,700 1,380 Climbing Boston Center
12:52AM 41.4239 -71.6719 222° Southwest 378 435 28,200 1,320 Climbing Boston Center
12:53AM 41.3392 -71.7614 218° Southwest 388 447 29,400 1,200 Climbing Boston Center
12:54AM 41.2550 -71.8528 219° Southwest 388 447 30,700 1,200 Climbing Boston Center
12:55AM 41.1717 -71.9428 219° Southwest 388 447 31,900 1,140 Climbing Boston Center
12:56AM 41.0878 -72.0328 219° Southwest 388 447 33,000 900 Climbing Boston Center
12:57AM 40.9956 -72.1308 219° Southwest 390 449 33,700 480 Climbing Boston Center
12:58AM 40.9078 -72.2256 219° Southwest 402 463 34,000 120 Climbing Boston Center
12:59AM 40.8161 -72.3217 218° Southwest 418 481 34,000  Level Boston Center
01:00AM 40.7258 -72.4164 219° Southwest 436 502 34,000  Level Boston Center
01:01AM 40.6311 -72.5189 219° Southwest 438 504 34,000  Level Boston Center
01:02AM 40.5383 -72.6175 219° Southwest 433 498 34,000  Level Boston Center
01:03AM 40.4450 -72.7150 218° Southwest 431 496 34,000  Level Boston Center
01:04AM 40.3514 -72.8125 218° Southwest 430 495 34,000  Level Boston Center
01:05AM 40.2581 -72.9092 218° Southwest 430 495 34,000  Level Boston Center
01:06AM 40.1617 -73.0089 218° Southwest 429 494 34,000  Level Boston Center
01:07AM 40.0686 -73.1033 218° Southwest 427 491 34,000  Level Boston Center
01:08AM 39.9778 -73.1989 219° Southwest 424 488 34,000  Level Boston Center
01:09AM 39.8858 -73.2911 218° Southwest 422 486 34,000  Level Boston Center
01:10AM 39.7794 -73.4014 219° Southwest 421 484 34,000  Level Boston Center
01:11AM 39.6881 -73.4936 218° Southwest 418 481 34,000  Level Boston Center
01:12AM 39.5961 -73.5881 218° Southwest 418 481 34,000  Level Boston Center
01:13AM 39.5033 -73.6800 217° Southwest 418 481 34,000  Level Boston Center
01:14AM 39.4125 -73.7728 218° Southwest 418 481 34,000  Level Boston Center
01:15AM 39.3042 -73.8844 219° Southwest 419 482 34,000  Level Washington Center
01:16AM 39.2100 -73.9769 217° Southwest 422 486 34,000  Level Washington Center
01:17AM 39.1161 -74.0694 217° Southwest 422 486 34,000  Level Washington Center
01:18AM 39.0231 -74.1619 218° Southwest 422 486 34,000  Level Washington Center
01:23AM 38.5531 -74.6233 218° Southwest 427 491 34,000  Level Washington Center
01:24AM 38.4581 -74.7133 217° Southwest 426 490 34,000  Level Washington Center
01:25AM 38.3647 -74.8056 218° Southwest 426 490 34,000  Level Washington Center
01:26AM 38.2683 -74.8986 217° Southwest 427 491 34,000  Level Washington Center
01:27AM 38.3083 -74.8241 218° Southwest  Level FlightAware Approximate
01:27AM 38.1744 -74.9892 217° Southwest 427 491 34,000  Level Washington Center
01:28AM 38.2229 -74.9085 218° Southwest  Level FlightAware Approximate
01:28AM 38.0792 -75.0803 217° Southwest 427 491 34,000  Level Washington Center
01:29AM 38.1374 -74.9927 218° Southwest  Level FlightAware Approximate
01:29AM 38.0039 -75.1533 217° Southwest 427 491 34,000  Level Washington Center
01:30AM 37.8917 -75.2614 217° Southwest 426 490 34,000  Level Washington Center
01:32AM 37.7969 -75.3500 216° Southwest 425 489 34,000  Level Washington Center
01:33AM 37.7025 -75.4397 217° Southwest 425 489 34,000  Level Washington Center
01:34AM 37.6081 -75.5275 216° Southwest 425 489 34,000  Level Washington Center
01:34AM 37.5125 -75.6172 217° Southwest 425 489 34,000  Level Washington Center
01:35AM 37.4172 -75.7056 216° Southwest 425 489 34,000  Level Washington Center
01:37AM 37.3233 -75.7942 217° Southwest 425 489 34,000  Level Washington Center
01:37AM 37.2292 -75.8828 217° Southwest 425 489 34,000  Level Washington Center
01:38AM 37.1350 -75.9708 217° Southwest 425 489 34,000  Level Washington Center
01:40AM 37.0417 -76.0586 217° Southwest 425 489 34,000  Level Washington Center
01:41AM 36.9267 -76.1642 216° Southwest 424 488 34,000  Level Washington Center
01:42AM 36.8311 -76.2475 215° Southwest 419 482 34,000  Level Washington Center
01:43AM 36.7364 -76.3358 217° Southwest 420 483 34,000 -360 Level Washington Center
01:44AM 36.6419 -76.4222 216° Southwest 437 503 33,300 -840 Descending Washington Center
01:45AM 36.5436 -76.5108 216° Southwest 442 509 32,400 -720 Descending Washington Center
01:46AM 36.4450 -76.6014 216° Southwest 442 509 32,000 -240 Descending Washington Center
01:47AM 36.3464 -76.6917 216° Southwest 443 510 32,000  Level Washington Center
01:48AM 36.2467 -76.7811 216° Southwest 438 504 32,000  Level Washington Center
01:49AM 36.1500 -76.8672 216° Southwest 438 504 32,000  Level Washington Center
01:50AM 36.0511 -76.9561 216° Southwest 439 505 32,000  Level Washington Center
01:51AM 35.9522 -77.0422 215° Southwest 438 504 32,000  Level Washington Center
01:52AM 35.8517 -77.1325 216° Southwest 437 503 32,000  Level Washington Center
01:53AM 35.7517 -77.2186 215° Southwest 438 504 32,000  Level Washington Center
01:54AM 35.6531 -77.3061 216° Southwest 438 504 32,000  Level Washington Center
01:55AM 35.5569 -77.3936 217° Southwest 432 497 32,000  Level Washington Center
01:56AM 35.4581 -77.4797 215° Southwest 433 498 32,000  Level Washington Center
01:57AM 35.3597 -77.5672 216° Southwest 434 499 32,000  Level Washington Center
01:58AM 35.2611 -77.6525 215° Southwest 434 499 32,000  Level Washington Center
01:59AM 35.1633 -77.7397 216° Southwest 434 499 32,000  Level Washington Center
02:00AM 35.0650 -77.8253 215° Southwest 433 498 32,000  Level Washington Center
02:01AM 34.9667 -77.9117 216° Southwest 433 498 32,000  Level Washington Center
02:02AM 34.8692 -77.9969 216° Southwest 431 496 32,000  Level Washington Center
02:03AM 34.7850 -78.0714 216° Southwest 431 496 32,000 -600 Level Washington Center
02:04AM 34.6861 -78.1567 215° Southwest 433 498 30,800 -1,680 Descending Washington Center
02:05AM 34.5856 -78.2442 216° Southwest 445 512 28,700 -2,100 Descending Washington Center
02:06AM 34.4925 -78.3353 219° Southwest 437 503 26,700 -2,280 Descending Washington Center
02:07AM 34.3856 -78.4439 220° Southwest 426 490 24,300 -2,280 Descending Washington Center
02:08AM 34.2947 -78.5314 219° Southwest 424 488 22,200 -1,980 Descending Washington Center
02:09AM 34.2000 -78.6169 217° Southwest 433 498 20,200 -1,920 Descending Jacksonville Center
02:10AM 34.1067 -78.6967 215° Southwest 428 493 18,200 -2,040 Descending Jacksonville Center
02:11AM 34.0175 -78.7711 215° Southwest 410 472 16,200 -2,040 Descending Jacksonville Center
02:12AM 33.9358 -78.8300 211° Southwest 381 438 14,200 -2,100 Descending Jacksonville Center
02:13AM 33.8603 -78.8836 211° Southwest 346 398 12,100 -2,100 Descending Jacksonville Center
02:14AM 33.7806 -78.9372 209° Southwest 329 379 10,100 -2,100 Descending Jacksonville Center
02:15AM 33.7028 -78.9781 204° Southwest 318 366 8,000 -2,100 Descending Jacksonville Center
02:16AM 33.6289 -79.0239 207° Southwest 312 359 6,000 -2,100 Descending Jacksonville Center
02:17AM 33.5636 -79.0742 213° Southwest 294 338 3,900 -1,500 Descending Jacksonville Center
02:18AM 33.5067 -79.1239 216° Southwest 277 319 3,000 -540 Descending Jacksonville Center
02:19AM 33.4581 -79.1683 217° Southwest 252 290 2,900 -120 Descending Jacksonville Center